Погода Доброволяна неделю

Гродненская область, Белоруссия

19 - 25 июля
  • 19июля
    Сегодня
    +13°
    +26°
    Ясно и безоблачно
    ВремяПогодаТемператураВлажностьДавлениеВетер, м/сВероятность осадков
    00:00Практически безоблачно+20°C60 %751 мм2.9 м/с2 %
    03:00Практически безоблачно+17°C74 %751 мм2.5 м/с2 %
    06:00Практически безоблачно+16°C82 %751 мм3.0 м/с2 %
    09:00Ясно и безоблачно+19°C68 %751 мм2.4 м/с2 %
    12:00Ясно и безоблачно+23°C47 %751 мм3.2 м/с2 %
    15:00Ясно и безоблачно+25°C40 %750 мм4.1 м/с2 %
    18:00Ясно и безоблачно+26°C44 %749 мм4.1 м/с2 %
    21:00Ясно и безоблачно+23°C55 %748 мм2.6 м/с2 %
  • 20июля
    Суббота
    +14°
    +26°
    Ясно и безоблачно
    ВремяПогодаТемператураВлажностьДавлениеВетер, м/сВероятность осадков
    00:00Ясно и безоблачно+18°C67 %748 мм2.5 м/с2 %
    03:00Ясно и безоблачно+16°C75 %748 мм2.4 м/с2 %
    06:00Ясно и безоблачно+13°C89 %747 мм1.4 м/с2 %
    09:00Ясно и безоблачно+19°C65 %747 мм1.1 м/с2 %
    12:00Небольшая облачность+22°C43 %747 мм2.4 м/с2 %
    15:00Ясно и безоблачно+25°C36 %746 мм2.3 м/с2 %
    18:00Ясно и безоблачно+26°C36 %745 мм2.1 м/с2 %
    21:00Ясно и безоблачно+23°C60 %744 мм1.2 м/с2 %
  • 21июля
    Воскресенье
    +16°
    +28°
    Облачно с прояснениями
    ВремяПогодаТемператураВлажностьДавлениеВетер, м/сВероятность осадков
    00:00Ясно и безоблачно+18°C73 %744 мм1.8 м/с2 %
    03:00Небольшая облачность+15°C82 %744 мм2.2 м/с2 %
    06:00Ясно и безоблачно+14°C90 %744 мм2.0 м/с2 %
    09:00Ясно и безоблачно+21°C57 %744 мм1.3 м/с2 %
    12:00Практически безоблачно+25°C39 %743 мм0.1 м/с2 %
    15:00Облачно с прояснениями+27°C34 %743 мм1.5 м/с10 %
    18:00Небольшая облачность+27°C35 %742 мм2.0 м/с5 %
    21:00Ясно и безоблачно+24°C49 %742 мм2.8 м/с2 %
  • 22июля
    Понедельник
    +17°
    +30°
    Практически безоблачно
    ВремяПогодаТемператураВлажностьДавлениеВетер, м/сВероятность осадков
    00:00Ясно и безоблачно+21°C55 %743 мм2.2 м/с2 %
    03:00Ясно и безоблачно+18°C66 %742 мм2.0 м/с2 %
    06:00Облачно с прояснениями+17°C73 %742 мм1.8 м/с2 %
    09:00Практически безоблачно+22°C56 %743 мм0.4 м/с2 %
    12:00Практически безоблачно+27°C37 %743 мм1.0 м/с5 %
    15:00Практически безоблачно+29°C34 %743 мм0.9 м/с15 %
    18:00Практически безоблачно+29°C35 %743 мм1.4 м/с9 %
    21:00Практически безоблачно+25°C50 %743 мм2.7 м/с13 %
  • 23июля
    Вторник
    +16°
    +29°
    Облачно с прояснениями
    ВремяПогодаТемператураВлажностьДавлениеВетер, м/сВероятность осадков
    00:00Ясно и безоблачно+22°C64 %743 мм2.2 м/с8 %
    03:00Практически безоблачно+20°C70 %743 мм1.9 м/с11 %
    06:00Практически безоблачно+18°C79 %743 мм1.6 м/с18 %
    09:00Облачно с прояснениями+22°C57 %744 мм1.3 м/с21 %
    12:00Облачно с прояснениями+27°C42 %744 мм2.3 м/с28 %
    15:00Облачно с прояснениями+28°C46 %744 мм4.2 м/с38 %
    18:00Облачно с прояснениями+28°C52 %744 мм3.8 м/с39 %
    21:00Небольшая облачность+23°C71 %744 мм3.6 м/с20 %
Мы используем cookies
Соглашаюсь